createdAt,value
2023-02-12T00:01:54.384Z,11.73
2023-02-12T00:04:55.957Z,13.02
2023-02-12T00:07:57.657Z,12.30
2023-02-12T00:10:59.315Z,12.73
2023-02-12T00:14:02.326Z,14.43
2023-02-12T00:17:04.127Z,15.80
2023-02-12T00:20:06.315Z,12.60
2023-02-12T00:23:08.069Z,13.23
2023-02-12T00:26:12.176Z,11.98
2023-02-12T00:29:19.297Z,12.70
2023-02-12T00:32:20.984Z,12.63
2023-02-12T00:35:22.588Z,11.70
2023-02-12T00:38:25.225Z,13.18
2023-02-12T00:41:27.690Z,10.25
2023-02-12T00:44:29.663Z,11.40
2023-02-12T00:47:31.249Z,11.38
2023-02-12T00:50:32.832Z,11.50
2023-02-12T00:53:35.943Z,11.23
2023-02-12T00:56:37.661Z,11.60
2023-02-12T00:59:40.295Z,11.93
2023-02-12T01:02:42.129Z,10.45
2023-02-12T01:05:43.951Z,10.82
2023-02-12T01:08:45.577Z,13.02
2023-02-12T01:11:47.254Z,11.30
2023-02-12T01:14:48.822Z,12.30
2023-02-12T01:17:54.010Z,12.27
2023-02-12T01:20:55.683Z,13.40
2023-02-12T01:23:58.911Z,12.05
2023-02-12T01:27:00.513Z,13.80
2023-02-12T01:30:04.378Z,15.88
2023-02-12T01:33:05.990Z,10.82
2023-02-12T01:36:09.536Z,11.18
2023-02-12T01:39:12.336Z,10.48
2023-02-12T01:42:15.216Z,10.55
2023-02-12T01:45:16.742Z,9.73
2023-02-12T01:48:20.003Z,14.23
2023-02-12T01:51:24.025Z,11.45
2023-02-12T01:54:26.990Z,11.25
2023-02-12T01:57:32.122Z,11.57
2023-02-12T02:00:33.770Z,10.68
2023-02-12T02:03:38.603Z,12.35
2023-02-12T02:06:54.105Z,13.05
2023-02-12T02:09:56.809Z,11.45
2023-02-12T02:13:21.248Z,10.85
2023-02-12T02:16:27.370Z,10.23
2023-02-12T02:20:02.809Z,11.45
2023-02-12T02:23:26.255Z,13.43
2023-02-12T02:27:07.484Z,11.80
2023-02-12T02:30:33.261Z,14.27
2023-02-12T02:33:43.884Z,12.52
2023-02-12T02:37:08.496Z,15.15
2023-02-12T02:40:17.963Z,12.13
2023-02-12T02:43:27.774Z,16.65
2023-02-12T02:46:43.572Z,15.27
2023-02-12T02:49:51.031Z,13.27
2023-02-12T02:53:05.478Z,16.83
2023-02-12T02:56:12.199Z,15.63
2023-02-12T03:02:33.422Z,11.57
2023-02-12T03:05:40.286Z,11.93
2023-02-12T03:08:52.975Z,13.70
2023-02-12T03:12:03.375Z,11.15
2023-02-12T03:15:26.937Z,11.93
2023-02-12T03:18:34.096Z,11.20
2023-02-12T03:21:44.129Z,11.88
2023-02-12T03:24:53.940Z,11.55
2023-02-12T03:28:01.732Z,10.27
2023-02-12T03:31:09.153Z,11.57
2023-02-12T03:34:26.265Z,15.93
2023-02-12T03:37:36.286Z,14.98
2023-02-12T03:40:43.109Z,13.27
2023-02-12T03:43:55.885Z,12.93
2023-02-12T03:47:15.558Z,11.88
2023-02-12T03:50:35.590Z,13.30
2023-02-12T03:53:37.551Z,16.23
2023-02-12T03:56:52.200Z,13.75
2023-02-12T03:59:53.827Z,15.10
2023-02-12T04:02:55.871Z,14.00
2023-02-12T04:05:57.674Z,14.70
2023-02-12T04:09:04.573Z,14.07
2023-02-12T04:12:34.350Z,15.10
2023-02-12T04:16:02.071Z,16.20
2023-02-12T04:19:04.100Z,16.90
2023-02-12T04:22:18.077Z,17.33
2023-02-12T04:25:42.707Z,13.70
2023-02-12T04:29:11.814Z,14.88
2023-02-12T04:32:24.966Z,15.63
2023-02-12T04:35:29.999Z,16.27
2023-02-12T04:38:59.231Z,16.00
2023-02-12T04:42:02.081Z,13.70
2023-02-12T04:45:03.883Z,15.05
2023-02-12T04:48:06.670Z,15.15
2023-02-12T04:51:10.340Z,17.17
2023-02-12T04:54:13.247Z,16.90
2023-02-12T04:57:14.867Z,16.15
2023-02-12T05:00:16.972Z,16.27
2023-02-12T05:03:18.662Z,18.40
2023-02-12T05:06:20.429Z,20.05
2023-02-12T05:09:22.127Z,20.05
2023-02-12T05:12:23.799Z,18.65
2023-02-12T05:15:25.442Z,21.75
2023-02-12T05:18:27.074Z,16.40
2023-02-12T05:21:28.783Z,18.13
2023-02-12T05:24:30.542Z,20.55
2023-02-12T05:27:32.322Z,19.52
2023-02-12T05:30:34.081Z,19.88
2023-02-12T05:33:35.675Z,18.55
2023-02-12T05:36:37.351Z,18.42
2023-02-12T05:39:38.987Z,17.13
2023-02-12T05:42:40.620Z,18.52
2023-02-12T05:45:45.008Z,20.60
2023-02-12T05:48:47.318Z,17.17
2023-02-12T05:51:49.487Z,19.00
2023-02-12T05:54:51.273Z,16.63
2023-02-12T05:57:52.908Z,15.70
2023-02-12T06:00:54.492Z,15.13
2023-02-12T06:03:56.229Z,13.60
2023-02-12T06:06:57.841Z,10.05
2023-02-12T06:09:59.483Z,7.97
2023-02-12T06:13:01.105Z,11.88
2023-02-12T06:16:02.886Z,11.60
2023-02-12T06:19:05.698Z,8.50
2023-02-12T06:22:07.354Z,7.18
2023-02-12T06:25:08.974Z,7.57
2023-02-12T06:28:10.614Z,6.72
2023-02-12T06:31:33.644Z,7.07
2023-02-12T06:34:35.360Z,7.30
2023-02-12T06:37:38.236Z,7.78
2023-02-12T06:40:40.015Z,7.75
2023-02-12T06:43:41.907Z,9.35
2023-02-12T06:46:43.595Z,10.55
2023-02-12T06:49:45.260Z,12.63
2023-02-12T06:52:46.930Z,11.77
2023-02-12T06:55:48.536Z,11.30
2023-02-12T06:58:58.469Z,11.90
2023-02-12T07:02:00.131Z,9.32
2023-02-12T07:05:01.863Z,8.93
2023-02-12T07:08:03.473Z,9.10
2023-02-12T07:11:06.259Z,7.68
2023-02-12T07:14:08.089Z,9.18
2023-02-12T07:17:10.161Z,6.13
2023-02-12T07:20:12.240Z,6.30
2023-02-12T07:23:14.272Z,5.70
2023-02-12T07:26:16.307Z,5.20
2023-02-12T07:29:18.005Z,16.00
2023-02-12T07:32:19.661Z,11.55
2023-02-12T07:35:21.295Z,8.32
2023-02-12T07:38:22.918Z,24.77
2023-02-12T07:41:27.394Z,16.55
2023-02-12T07:44:29.353Z,15.15
2023-02-12T07:47:31.090Z,42.15
2023-02-12T07:50:32.759Z,86.93
2023-02-12T07:53:35.008Z,26.25
2023-02-12T07:56:39.056Z,20.10
2023-02-12T07:59:40.651Z,14.07
2023-02-12T08:02:42.410Z,13.35
2023-02-12T08:05:44.018Z,13.95
2023-02-12T08:08:51.570Z,9.35
2023-02-12T08:11:53.665Z,9.93
2023-02-12T08:14:55.274Z,10.05
2023-02-12T08:17:56.876Z,13.35
2023-02-12T08:21:09.627Z,15.23
2023-02-12T08:24:12.015Z,14.15
2023-02-12T08:27:13.656Z,14.98
2023-02-12T08:30:15.629Z,17.38
2023-02-12T08:33:17.339Z,17.05
2023-02-12T08:36:22.955Z,17.23
2023-02-12T08:39:26.568Z,16.08
2023-02-12T08:42:28.302Z,15.07
2023-02-12T08:45:29.891Z,15.05
2023-02-12T08:48:32.211Z,22.25
2023-02-12T08:51:36.154Z,22.95
2023-02-12T08:54:37.770Z,23.52
2023-02-12T08:57:39.360Z,21.23
2023-02-12T09:00:41.038Z,20.08
2023-02-12T09:03:44.092Z,11.27
2023-02-12T09:06:46.568Z,11.10
2023-02-12T09:09:48.281Z,10.73
2023-02-12T09:12:49.904Z,14.65
2023-02-12T09:15:51.569Z,13.85
2023-02-12T09:18:53.377Z,13.10
2023-02-12T09:21:56.587Z,12.95
2023-02-12T09:24:58.531Z,13.68
2023-02-12T09:28:03.553Z,15.82
2023-02-12T09:31:23.211Z,15.07
2023-02-12T09:34:24.991Z,14.13
2023-02-12T09:37:26.726Z,13.52
2023-02-12T09:41:02.321Z,15.13
2023-02-12T09:44:27.089Z,13.20
2023-02-12T09:47:52.381Z,13.73
2023-02-12T09:50:56.334Z,13.85
2023-02-12T09:54:07.425Z,14.30
2023-02-12T09:57:36.161Z,12.00
2023-02-12T10:00:39.122Z,12.45
2023-02-12T10:03:41.334Z,13.90
2023-02-12T10:06:57.511Z,13.65
2023-02-12T10:10:26.907Z,12.32
2023-02-12T10:13:43.888Z,11.10
2023-02-12T10:20:01.061Z,10.85
2023-02-12T10:23:18.223Z,11.60
2023-02-12T10:26:26.013Z,15.25
2023-02-12T10:29:34.069Z,12.88
2023-02-12T10:32:38.074Z,12.77
2023-02-12T10:35:49.832Z,14.77
2023-02-12T10:38:57.825Z,14.40
2023-02-12T10:42:21.533Z,14.52
2023-02-12T10:45:35.829Z,15.60
2023-02-12T10:48:40.200Z,13.98
2023-02-12T10:52:03.570Z,14.32
2023-02-12T10:55:25.801Z,13.50
2023-02-12T10:58:27.484Z,14.07
2023-02-12T11:01:35.574Z,14.68
2023-02-12T11:04:37.288Z,13.00
2023-02-12T11:07:49.483Z,13.02
2023-02-12T11:10:52.417Z,11.07
2023-02-12T11:13:58.441Z,10.77
2023-02-12T11:17:02.639Z,11.10
2023-02-12T11:20:04.292Z,10.95
2023-02-12T11:23:22.696Z,12.73
2023-02-12T11:26:30.448Z,12.38
2023-02-12T11:29:33.757Z,12.50
2023-02-12T11:32:35.735Z,14.20
2023-02-12T11:35:37.827Z,16.33
2023-02-12T11:38:50.143Z,15.00
2023-02-12T11:42:20.119Z,13.55
2023-02-12T11:45:26.462Z,13.02
2023-02-12T11:48:39.603Z,13.57
2023-02-12T11:51:41.389Z,10.60
2023-02-12T11:54:48.354Z,11.20
2023-02-12T11:57:52.932Z,10.63
2023-02-12T12:01:22.077Z,9.20
2023-02-12T12:04:27.521Z,10.82
2023-02-12T12:07:34.370Z,9.20
2023-02-12T12:10:55.522Z,11.43
2023-02-12T12:14:13.701Z,11.82
2023-02-12T12:17:35.938Z,11.60
2023-02-12T12:21:18.048Z,10.15
2023-02-12T12:24:43.995Z,10.43
2023-02-12T12:28:03.648Z,10.00
2023-02-12T12:31:05.472Z,10.15
2023-02-12T12:34:13.177Z,10.35
2023-02-12T12:37:48.648Z,8.85
2023-02-12T12:41:02.550Z,9.30
2023-02-12T12:44:14.737Z,8.52
2023-02-12T12:47:45.799Z,7.70
2023-02-12T12:51:13.385Z,8.30
2023-02-12T12:54:28.431Z,9.02
2023-02-12T12:57:42.111Z,8.32
2023-02-12T13:01:04.036Z,7.38
2023-02-12T13:04:31.646Z,8.13
2023-02-12T13:07:58.954Z,7.70
2023-02-12T13:11:11.486Z,7.53
2023-02-12T13:14:43.611Z,7.97
2023-02-12T13:18:02.314Z,7.32
2023-02-12T13:21:13.505Z,7.80
2023-02-12T13:24:37.160Z,7.65
2023-02-12T13:27:43.706Z,7.03
2023-02-12T13:30:49.633Z,7.63
2023-02-12T13:34:02.311Z,7.72
2023-02-12T13:37:06.886Z,7.05
2023-02-12T13:40:16.049Z,7.32
2023-02-12T13:43:47.285Z,6.93
2023-02-12T13:46:57.331Z,6.72
2023-02-12T13:50:24.640Z,6.88
2023-02-12T13:53:30.618Z,7.05
2023-02-12T13:57:03.526Z,6.80
2023-02-12T14:00:09.688Z,7.38
2023-02-12T14:03:11.908Z,7.45
2023-02-12T14:06:22.251Z,6.78
2023-02-12T14:09:44.258Z,9.35
2023-02-12T14:12:47.276Z,7.75
2023-02-12T14:15:58.796Z,7.72
2023-02-12T14:19:37.833Z,8.27
2023-02-12T14:22:42.441Z,8.45
2023-02-12T14:25:48.651Z,8.05
2023-02-12T14:28:57.738Z,8.05
2023-02-12T14:32:00.198Z,7.05
2023-02-12T14:35:30.892Z,7.45
2023-02-12T14:38:42.643Z,7.38
2023-02-12T14:42:10.877Z,6.97
2023-02-12T14:45:28.925Z,7.15
2023-02-12T14:48:50.674Z,7.50
2023-02-12T14:51:59.981Z,7.22
2023-02-12T14:55:06.637Z,7.32
2023-02-12T14:58:21.297Z,8.77
2023-02-12T15:01:33.913Z,6.78
2023-02-12T15:04:38.541Z,6.13
2023-02-12T15:07:59.840Z,7.47
2023-02-12T15:11:13.842Z,6.55
2023-02-12T15:14:20.626Z,7.28
2023-02-12T15:17:28.219Z,6.60
2023-02-12T15:20:37.982Z,7.10
2023-02-12T15:23:42.683Z,9.02
2023-02-12T15:26:48.376Z,9.10
2023-02-12T15:29:55.548Z,9.32
2023-02-12T15:33:00.400Z,8.13
2023-02-12T15:36:03.737Z,8.45
2023-02-12T15:39:09.077Z,8.55
2023-02-12T15:42:34.368Z,7.32
2023-02-12T15:45:36.730Z,9.68
2023-02-12T15:48:39.275Z,9.00
2023-02-12T15:51:43.880Z,8.45
2023-02-12T15:54:47.385Z,9.93
2023-02-12T15:58:00.022Z,9.35
2023-02-12T16:01:05.339Z,9.90
2023-02-12T16:04:08.782Z,8.93
2023-02-12T16:07:12.683Z,9.27
2023-02-12T16:10:16.290Z,9.57
2023-02-12T16:13:32.338Z,11.65
2023-02-12T16:16:46.245Z,10.98
2023-02-12T16:19:58.761Z,10.30
2023-02-12T16:23:06.780Z,11.93
2023-02-12T16:26:08.548Z,10.32
2023-02-12T16:29:16.718Z,9.13
2023-02-12T16:32:39.207Z,9.07
2023-02-12T16:35:40.987Z,10.05
2023-02-12T16:38:52.879Z,9.80
2023-02-12T16:41:57.285Z,7.22
2023-02-12T16:44:59.040Z,7.80
2023-02-12T16:48:08.401Z,7.25
2023-02-12T16:51:28.351Z,7.38
2023-02-12T16:54:35.515Z,7.72
2023-02-12T16:57:37.394Z,5.80
2023-02-12T17:00:39.747Z,5.97
2023-02-12T17:03:44.608Z,6.00
2023-02-12T17:06:46.463Z,5.32
2023-02-12T17:09:48.547Z,5.38
2023-02-12T17:12:52.514Z,5.22
2023-02-12T17:15:59.741Z,5.10
2023-02-12T17:19:01.707Z,5.15
2023-02-12T17:22:08.974Z,5.15
2023-02-12T17:25:12.163Z,5.82
2023-02-12T17:28:14.097Z,5.82
2023-02-12T17:31:15.910Z,6.45
2023-02-12T17:34:17.597Z,6.13
2023-02-12T17:37:25.019Z,5.70
2023-02-12T17:40:26.980Z,5.53
2023-02-12T17:43:28.719Z,5.97
2023-02-12T17:46:34.140Z,5.60
2023-02-12T17:53:28.944Z,6.03
2023-02-12T17:56:30.788Z,5.82
2023-02-12T17:59:35.133Z,5.95
2023-02-12T18:02:36.962Z,6.43
2023-02-12T18:05:42.945Z,5.93
2023-02-12T18:08:44.833Z,6.00
2023-02-12T18:11:46.456Z,7.28
2023-02-12T18:14:48.150Z,12.32
2023-02-12T18:17:58.983Z,11.90
2023-02-12T18:21:00.588Z,16.60
2023-02-12T18:24:02.587Z,15.52
2023-02-12T18:27:04.704Z,11.63
2023-02-12T18:30:09.059Z,11.25
2023-02-12T18:33:12.582Z,11.50
2023-02-12T18:36:17.215Z,9.18
2023-02-12T18:39:18.896Z,21.23
2023-02-12T18:42:27.970Z,17.35
2023-02-12T18:45:29.645Z,10.80
2023-02-12T18:48:31.511Z,10.27
2023-02-12T18:51:36.643Z,9.32
2023-02-12T18:54:38.365Z,8.48
2023-02-12T18:57:40.051Z,8.27
2023-02-12T19:00:41.701Z,10.90
2023-02-12T19:03:45.713Z,10.68
2023-02-12T19:06:53.395Z,6.80
2023-02-12T19:09:55.143Z,8.85
2023-02-12T19:12:57.289Z,8.27
2023-02-12T19:15:58.942Z,19.98
2023-02-12T19:19:02.870Z,8.30
2023-02-12T19:22:04.460Z,7.53
2023-02-12T19:25:06.713Z,6.50
2023-02-12T19:28:12.856Z,6.70
2023-02-12T19:31:15.916Z,8.20
2023-02-12T19:34:20.069Z,6.93
2023-02-12T19:37:21.718Z,5.53
2023-02-12T19:40:23.562Z,6.20
2023-02-12T19:43:25.166Z,5.30
2023-02-12T19:46:29.916Z,6.53
2023-02-12T19:49:31.757Z,5.57
2023-02-12T19:52:33.587Z,6.43
2023-02-12T19:55:35.722Z,5.80
2023-02-12T19:58:38.154Z,5.78
2023-02-12T20:01:39.915Z,5.43
2023-02-12T20:04:41.614Z,5.85
2023-02-12T20:07:43.257Z,4.72
2023-02-12T20:10:44.930Z,5.03
2023-02-12T20:13:46.791Z,5.50
2023-02-12T20:16:50.478Z,5.38
2023-02-12T20:19:52.134Z,7.13
2023-02-12T20:22:53.715Z,6.63
2023-02-12T20:25:55.394Z,6.18
2023-02-12T20:28:57.323Z,7.53
2023-02-12T20:31:59.064Z,5.95
2023-02-12T20:35:00.846Z,7.57
2023-02-12T20:38:04.072Z,7.50
2023-02-12T20:41:08.629Z,7.30
2023-02-12T20:44:15.808Z,6.40
2023-02-12T20:47:17.405Z,6.20
2023-02-12T20:50:19.162Z,6.63
2023-02-12T20:53:20.869Z,5.85
2023-02-12T20:56:28.338Z,6.10
2023-02-12T20:59:29.940Z,5.75
2023-02-12T21:02:31.597Z,5.38
2023-02-12T21:05:34.094Z,5.38
2023-02-12T21:08:37.629Z,5.30
2023-02-12T21:11:41.012Z,5.40
2023-02-12T21:14:42.707Z,5.10
2023-02-12T21:17:44.276Z,5.15
2023-02-12T21:20:46.188Z,5.07
2023-02-12T21:23:48.140Z,5.85
2023-02-12T21:26:51.483Z,4.53
2023-02-12T21:29:53.152Z,4.75
2023-02-12T21:32:55.025Z,4.97
2023-02-12T21:35:56.877Z,5.13
2023-02-12T21:38:58.687Z,5.15
2023-02-12T21:42:03.187Z,5.57
2023-02-12T21:45:06.294Z,5.38
2023-02-12T21:48:09.298Z,6.95
2023-02-12T21:51:19.564Z,6.03
2023-02-12T21:54:22.003Z,6.10
2023-02-12T21:57:24.966Z,6.18
2023-02-12T22:00:26.925Z,5.85
2023-02-12T22:03:29.041Z,5.28
2023-02-12T22:06:31.122Z,5.03
2023-02-12T22:09:32.997Z,4.63
2023-02-12T22:12:35.668Z,6.47
2023-02-12T22:15:37.904Z,7.05
2023-02-12T22:18:41.194Z,6.03
2023-02-12T22:21:44.363Z,6.65
2023-02-12T22:24:45.958Z,6.93
2023-02-12T22:27:47.586Z,6.47
2023-02-12T22:30:49.169Z,6.50
2023-02-12T22:33:53.453Z,5.50
2023-02-12T22:36:55.023Z,6.50
2023-02-12T22:39:56.679Z,6.25
2023-02-12T22:42:58.224Z,9.07
2023-02-12T22:45:59.922Z,5.85
2023-02-12T22:49:01.981Z,5.90
2023-02-12T22:52:03.747Z,5.03
2023-02-12T22:55:05.620Z,4.95
2023-02-12T22:58:07.337Z,4.95
2023-02-12T23:01:17.485Z,4.93
2023-02-12T23:04:19.450Z,6.88
2023-02-12T23:07:21.058Z,6.47
2023-02-12T23:10:22.722Z,7.60
2023-02-12T23:13:29.656Z,5.30
2023-02-12T23:16:32.225Z,5.25
2023-02-12T23:19:33.911Z,5.95
2023-02-12T23:22:35.496Z,4.90
2023-02-12T23:25:39.189Z,5.43
2023-02-12T23:28:40.841Z,5.55
2023-02-12T23:31:42.589Z,6.10
2023-02-12T23:34:44.234Z,6.50
2023-02-12T23:37:46.187Z,6.95
2023-02-12T23:40:48.565Z,8.18
2023-02-12T23:43:50.218Z,6.72
2023-02-12T23:46:53.827Z,6.10
2023-02-12T23:49:55.374Z,6.30
2023-02-12T23:52:58.075Z,7.00
2023-02-12T23:55:59.642Z,7.55
2023-02-12T23:59:06.585Z,5.85
